createdAt,value
2019-04-14T00:00:29.282Z,12.53
2019-04-14T00:03:08.670Z,12.03
2019-04-14T00:05:38.523Z,13.38
2019-04-14T00:08:07.046Z,13.10
2019-04-14T00:10:35.736Z,12.82
2019-04-14T00:13:04.614Z,12.90
2019-04-14T00:15:39.520Z,11.68
2019-04-14T00:18:03.667Z,13.20
2019-04-14T00:20:32.105Z,14.65
2019-04-14T00:23:00.541Z,12.73
2019-04-14T00:25:29.040Z,12.75
2019-04-14T00:27:58.551Z,13.08
2019-04-14T00:30:27.308Z,13.43
2019-04-14T00:33:04.141Z,12.70
2019-04-14T00:35:51.574Z,12.98
2019-04-14T00:38:21.866Z,13.18
2019-04-14T00:41:09.312Z,12.93
2019-04-14T00:43:39.618Z,13.18
2019-04-14T00:46:12.562Z,12.15
2019-04-14T00:48:41.049Z,13.80
2019-04-14T00:51:09.491Z,13.10
2019-04-14T00:53:38.176Z,13.48
2019-04-14T00:56:06.877Z,12.45
2019-04-14T00:58:35.312Z,12.30
2019-04-14T01:01:04.884Z,13.90
2019-04-14T01:03:33.314Z,12.80
2019-04-14T01:06:01.828Z,13.70
2019-04-14T01:08:31.327Z,13.72
2019-04-14T01:11:00.899Z,12.60
2019-04-14T01:13:29.494Z,14.35
2019-04-14T01:16:06.396Z,12.80
2019-04-14T01:18:28.087Z,14.18
2019-04-14T01:20:57.853Z,13.30
2019-04-14T01:23:26.359Z,13.22
2019-04-14T01:25:56.401Z,13.43
2019-04-14T01:28:24.933Z,13.70
2019-04-14T01:30:54.370Z,13.40
2019-04-14T01:33:22.960Z,13.62
2019-04-14T01:35:51.645Z,12.85
2019-04-14T01:38:21.106Z,13.28
2019-04-14T01:40:50.910Z,13.50
2019-04-14T01:43:19.487Z,12.87
2019-04-14T01:45:59.530Z,13.83
2019-04-14T01:48:19.218Z,13.35
2019-04-14T01:51:04.870Z,13.43
2019-04-14T01:53:37.977Z,13.20
2019-04-14T01:56:08.083Z,14.10
2019-04-14T01:58:44.708Z,13.22
2019-04-14T02:01:14.986Z,14.10
2019-04-14T02:03:43.473Z,13.43
2019-04-14T02:06:11.916Z,13.38
2019-04-14T02:08:41.439Z,13.35
2019-04-14T02:11:10.132Z,12.93
2019-04-14T02:13:39.672Z,13.22
2019-04-14T02:16:18.780Z,14.68
2019-04-14T02:18:38.546Z,13.28
2019-04-14T02:21:08.422Z,13.70
2019-04-14T02:23:36.972Z,13.80
2019-04-14T02:26:06.785Z,12.60
2019-04-14T02:28:35.414Z,13.10
2019-04-14T02:31:18.065Z,13.78
2019-04-14T02:34:21.977Z,13.70
2019-04-14T02:36:36.238Z,13.08
2019-04-14T02:44:09.709Z,15.60
2019-04-14T02:46:39.846Z,15.25
2019-04-14T02:49:08.295Z,13.25
2019-04-14T02:56:28.053Z,13.98
2019-04-14T02:58:58.731Z,15.85
2019-04-14T03:01:29.561Z,13.28
2019-04-14T03:03:56.239Z,14.30
2019-04-14T03:06:50.413Z,14.28
2019-04-14T03:11:31.221Z,13.53
2019-04-14T03:17:00.988Z,15.20
2019-04-14T03:19:35.411Z,14.20
2019-04-14T03:22:18.343Z,12.93
2019-04-14T03:24:32.855Z,12.80
2019-04-14T03:27:19.527Z,14.40
2019-04-14T03:32:23.701Z,13.38
2019-04-14T03:34:59.209Z,13.95
2019-04-14T03:37:39.655Z,13.60
2019-04-14T03:47:15.146Z,13.03
2019-04-14T03:50:00.956Z,13.28
2019-04-14T03:52:16.530Z,12.82
2019-04-14T03:54:38.126Z,12.70
2019-04-14T03:56:51.407Z,16.50
2019-04-14T03:59:20.085Z,13.62
2019-04-14T04:01:48.507Z,13.25
2019-04-14T04:04:18.244Z,13.48
2019-04-14T04:06:46.908Z,13.60
2019-04-14T04:09:15.404Z,12.67
2019-04-14T04:11:43.832Z,13.10
2019-04-14T04:14:12.281Z,13.63
2019-04-14T04:16:46.112Z,14.10
2019-04-14T04:19:25.177Z,15.68
2019-04-14T04:21:55.526Z,14.40
2019-04-14T04:24:35.138Z,13.98
2019-04-14T04:27:05.220Z,13.10
2019-04-14T04:29:41.979Z,15.13
2019-04-14T04:32:20.864Z,14.40
2019-04-14T04:34:51.267Z,14.05
2019-04-14T04:37:24.045Z,13.18
2019-04-14T04:39:56.868Z,12.60
2019-04-14T04:42:26.465Z,13.13
2019-04-14T04:44:55.335Z,13.13
2019-04-14T04:47:23.820Z,13.45
2019-04-14T04:49:53.247Z,13.55
2019-04-14T04:52:21.772Z,14.40
2019-04-14T04:54:50.228Z,12.73
2019-04-14T04:57:19.820Z,12.90
2019-04-14T04:59:49.632Z,13.70
2019-04-14T05:02:18.129Z,13.72
2019-04-14T05:04:46.557Z,14.18
2019-04-14T05:07:14.978Z,13.68
2019-04-14T05:09:49.019Z,14.28
2019-04-14T05:12:19.590Z,13.18
2019-04-14T05:14:55.235Z,12.53
2019-04-14T05:17:43.267Z,13.48
2019-04-14T05:20:11.712Z,13.90
2019-04-14T05:22:40.153Z,14.40
2019-04-14T05:25:09.958Z,13.83
2019-04-14T05:27:38.768Z,13.28
2019-04-14T05:30:08.898Z,12.63
2019-04-14T05:32:37.432Z,12.00
2019-04-14T05:35:07.404Z,12.25
2019-04-14T05:37:35.957Z,12.80
2019-04-14T05:40:06.329Z,12.13
2019-04-14T05:42:34.768Z,11.95
2019-04-14T05:45:04.481Z,11.63
2019-04-14T05:47:32.997Z,11.68
2019-04-14T05:50:01.440Z,11.48
2019-04-14T05:52:29.863Z,12.60
2019-04-14T05:54:58.535Z,11.63
2019-04-14T05:57:26.997Z,11.70
2019-04-14T05:59:56.933Z,11.73
2019-04-14T06:02:27.863Z,11.35
2019-04-14T06:04:55.637Z,11.60
2019-04-14T06:07:24.078Z,11.12
2019-04-14T06:09:52.502Z,12.13
2019-04-14T06:12:20.961Z,10.80
2019-04-14T06:14:49.372Z,10.50
2019-04-14T06:17:17.794Z,11.03
2019-04-14T06:19:46.242Z,10.90
2019-04-14T06:22:14.674Z,10.78
2019-04-14T06:24:43.174Z,11.08
2019-04-14T06:27:11.874Z,10.63
2019-04-14T06:29:40.298Z,10.95
2019-04-14T06:32:15.835Z,10.23
2019-04-14T06:34:45.896Z,10.98
2019-04-14T06:37:18.654Z,10.60
2019-04-14T06:39:48.803Z,11.63
2019-04-14T06:42:17.220Z,10.80
2019-04-14T06:44:45.655Z,11.30
2019-04-14T06:47:14.095Z,10.90
2019-04-14T06:49:48.972Z,10.55
2019-04-14T06:52:12.671Z,10.30
2019-04-14T06:54:41.113Z,10.68
2019-04-14T06:57:09.536Z,10.50
2019-04-14T06:59:37.966Z,11.00
2019-04-14T07:02:08.558Z,10.30
2019-04-14T07:04:36.554Z,10.10
2019-04-14T07:07:04.977Z,10.68
2019-04-14T07:09:33.417Z,9.70
2019-04-14T07:12:01.951Z,11.50
2019-04-14T07:14:32.048Z,9.30
2019-04-14T07:17:00.645Z,10.30
2019-04-14T07:19:29.410Z,10.55
2019-04-14T07:21:58.126Z,10.23
2019-04-14T07:24:26.580Z,11.83
2019-04-14T07:26:55.008Z,10.00
2019-04-14T07:29:25.074Z,10.13
2019-04-14T07:31:55.152Z,10.13
2019-04-14T07:34:36.910Z,10.50
2019-04-14T07:37:12.746Z,9.35
2019-04-14T07:39:42.806Z,10.03
2019-04-14T07:42:15.539Z,10.57
2019-04-14T07:44:45.744Z,9.65
2019-04-14T07:47:15.822Z,9.63
2019-04-14T07:49:48.614Z,9.85
2019-04-14T07:52:24.502Z,9.20
2019-04-14T07:55:10.369Z,8.65
2019-04-14T07:57:56.765Z,9.23
2019-04-14T08:00:44.901Z,9.10
2019-04-14T08:03:23.910Z,9.23
2019-04-14T08:05:52.365Z,9.60
2019-04-14T08:08:20.801Z,10.05
2019-04-14T08:10:49.235Z,9.40
2019-04-14T08:13:17.654Z,11.73
2019-04-14T08:15:46.382Z,11.03
2019-04-14T08:18:14.837Z,9.30
2019-04-14T08:20:43.328Z,9.30
2019-04-14T08:23:11.763Z,12.33
2019-04-14T08:25:40.254Z,8.00
2019-04-14T08:28:08.678Z,9.18
2019-04-14T08:30:37.217Z,10.50
2019-04-14T08:33:05.674Z,11.33
2019-04-14T08:35:34.123Z,8.38
2019-04-14T08:38:02.997Z,9.20
2019-04-14T08:40:31.514Z,9.88
2019-04-14T08:43:04.237Z,8.93
2019-04-14T08:45:39.761Z,9.28
2019-04-14T08:48:24.625Z,8.80
2019-04-14T08:51:11.085Z,8.93
2019-04-14T08:53:41.246Z,9.58
2019-04-14T08:56:26.395Z,9.93
2019-04-14T08:59:12.680Z,8.95
2019-04-14T09:01:57.285Z,9.35
2019-04-14T09:04:30.021Z,8.28
2019-04-14T09:07:08.884Z,9.00
2019-04-14T09:09:41.460Z,9.30
2019-04-14T09:12:15.691Z,9.68
2019-04-14T09:14:41.689Z,9.98
2019-04-14T09:17:10.105Z,11.38
2019-04-14T09:19:39.435Z,10.27
2019-04-14T09:22:07.905Z,10.80
2019-04-14T09:24:36.586Z,10.65
2019-04-14T09:27:05.069Z,9.98
2019-04-14T09:29:33.545Z,9.30
2019-04-14T09:32:02.050Z,9.93
2019-04-14T09:34:30.464Z,10.38
2019-04-14T09:36:59.166Z,9.40
2019-04-14T09:39:27.906Z,9.60
2019-04-14T09:41:56.351Z,10.35
2019-04-14T09:44:24.788Z,10.32
2019-04-14T09:46:53.218Z,10.20
2019-04-14T09:49:21.635Z,10.65
2019-04-14T09:51:50.104Z,9.10
2019-04-14T09:54:18.535Z,10.23
2019-04-14T09:56:46.964Z,10.78
2019-04-14T09:59:15.423Z,10.07
2019-04-14T10:01:43.937Z,9.53
2019-04-14T10:04:12.355Z,9.15
2019-04-14T10:06:41.059Z,9.43
2019-04-14T10:09:09.640Z,10.98
2019-04-14T10:11:47.908Z,9.95
2019-04-14T10:14:08.345Z,9.68
2019-04-14T10:16:36.784Z,9.10
2019-04-14T10:19:05.200Z,9.40
2019-04-14T10:21:33.653Z,9.80
2019-04-14T10:24:02.074Z,11.00
2019-04-14T10:26:30.559Z,8.90
2019-04-14T10:28:59.065Z,10.78
2019-04-14T10:31:27.489Z,11.38
2019-04-14T10:33:55.909Z,10.18
2019-04-14T10:36:24.372Z,10.05
2019-04-14T10:38:52.871Z,11.50
2019-04-14T10:41:27.587Z,11.45
2019-04-14T10:43:56.023Z,11.60
2019-04-14T10:46:24.437Z,13.53
2019-04-14T10:48:52.865Z,13.70
2019-04-14T10:51:29.904Z,13.22
2019-04-14T10:53:51.767Z,13.80
2019-04-14T10:56:20.203Z,13.03
2019-04-14T10:58:48.670Z,13.10
2019-04-14T11:01:17.095Z,12.75
2019-04-14T11:03:45.517Z,12.73
2019-04-14T11:06:30.409Z,11.97
2019-04-14T11:08:58.832Z,13.35
2019-04-14T11:11:27.257Z,13.10
2019-04-14T11:13:55.732Z,12.88
2019-04-14T11:16:24.229Z,13.48
2019-04-14T11:18:52.650Z,12.75
2019-04-14T11:21:21.112Z,12.73
2019-04-14T11:23:49.532Z,12.43
2019-04-14T11:26:17.957Z,12.53
2019-04-14T11:28:46.425Z,11.50
2019-04-14T11:31:16.740Z,12.05
2019-04-14T11:33:58.592Z,11.20
2019-04-14T11:36:43.846Z,10.70
2019-04-14T11:39:13.945Z,11.20
2019-04-14T11:41:42.433Z,11.18
2019-04-14T11:44:10.948Z,12.30
2019-04-14T11:46:39.498Z,11.68
2019-04-14T11:49:08.002Z,11.90
2019-04-14T11:51:36.430Z,11.73
2019-04-14T11:54:04.954Z,12.07
2019-04-14T11:56:33.406Z,10.60
2019-04-14T11:59:02.295Z,11.63
2019-04-14T12:01:32.474Z,11.20
2019-04-14T12:04:08.548Z,11.60
2019-04-14T12:06:50.490Z,9.68
2019-04-14T12:09:23.569Z,10.70
2019-04-14T12:11:51.993Z,11.15
2019-04-14T12:14:20.439Z,11.18
2019-04-14T12:16:48.857Z,10.53
2019-04-14T12:19:17.294Z,10.55
2019-04-14T12:21:45.740Z,10.70
2019-04-14T12:24:14.168Z,10.43
2019-04-14T12:26:42.832Z,10.20
2019-04-14T12:29:11.820Z,10.58
2019-04-14T12:31:41.982Z,10.30
2019-04-14T12:34:10.518Z,10.60
2019-04-14T12:36:38.959Z,10.45
2019-04-14T12:39:10.454Z,10.10
2019-04-14T12:41:46.617Z,10.25
2019-04-14T12:44:32.696Z,10.70
2019-04-14T12:47:02.791Z,10.58
2019-04-14T12:49:32.914Z,11.40
2019-04-14T12:52:03.242Z,11.12
2019-04-14T12:54:31.705Z,11.57
2019-04-14T12:57:00.130Z,10.58
2019-04-14T12:59:28.801Z,12.68
2019-04-14T13:02:11.377Z,11.17
2019-04-14T13:04:39.880Z,11.30
2019-04-14T13:07:08.301Z,10.90
2019-04-14T13:09:36.865Z,11.83
2019-04-14T13:12:05.355Z,12.50
2019-04-14T13:14:33.794Z,12.90
2019-04-14T13:17:02.258Z,12.03
2019-04-14T13:19:30.695Z,12.18
2019-04-14T13:21:59.109Z,12.20
2019-04-14T13:24:27.552Z,12.30
2019-04-14T13:26:55.975Z,12.55
2019-04-14T13:29:24.397Z,12.00
2019-04-14T13:31:52.895Z,12.70
2019-04-14T13:34:21.308Z,12.20
2019-04-14T13:36:49.743Z,12.70
2019-04-14T13:39:18.449Z,12.20
2019-04-14T13:41:46.882Z,12.47
2019-04-14T13:44:15.312Z,13.40
2019-04-14T13:46:43.754Z,12.93
2019-04-14T13:49:12.175Z,12.73
2019-04-14T13:51:40.618Z,13.10
2019-04-14T13:54:09.057Z,13.30
2019-04-14T13:56:38.328Z,13.53
2019-04-14T13:59:06.758Z,14.03
2019-04-14T14:01:35.192Z,13.93
2019-04-14T14:04:03.694Z,13.60
2019-04-14T14:06:32.125Z,15.25
2019-04-14T14:09:00.565Z,13.85
2019-04-14T14:11:36.663Z,13.20
2019-04-14T14:14:07.010Z,13.43
2019-04-14T14:16:53.334Z,14.68
2019-04-14T14:19:23.425Z,14.20
2019-04-14T14:22:02.501Z,14.98
2019-04-14T14:24:32.581Z,15.18
2019-04-14T14:27:02.679Z,14.30
2019-04-14T14:29:31.173Z,13.60
2019-04-14T14:32:01.495Z,13.53
2019-04-14T14:34:29.927Z,14.68
2019-04-14T14:36:58.347Z,14.07
2019-04-14T14:39:26.834Z,14.33
2019-04-14T14:41:55.266Z,13.93
2019-04-14T14:44:25.396Z,15.40
2019-04-14T14:47:04.250Z,14.13
2019-04-14T14:49:50.537Z,15.10
2019-04-14T14:52:20.629Z,14.90
2019-04-14T14:54:49.057Z,14.30
2019-04-14T14:57:17.743Z,14.50
2019-04-14T14:59:46.189Z,14.60
2019-04-14T15:02:14.613Z,14.05
2019-04-14T15:04:43.040Z,14.95
2019-04-14T15:07:11.789Z,16.10
2019-04-14T15:09:40.289Z,14.70
2019-04-14T15:12:08.729Z,14.20
2019-04-14T15:14:37.173Z,15.23
2019-04-14T15:17:08.261Z,14.87
2019-04-14T15:19:35.761Z,13.32
2019-04-14T15:22:04.290Z,14.60
2019-04-14T15:24:32.978Z,14.38
2019-04-14T15:27:02.288Z,14.47
2019-04-14T15:29:30.737Z,14.38
2019-04-14T15:31:59.148Z,14.35
2019-04-14T15:34:27.592Z,13.72
2019-04-14T15:36:56.077Z,13.50
2019-04-14T15:39:24.511Z,13.35
2019-04-14T15:41:52.934Z,12.40
2019-04-14T15:44:21.381Z,12.00
2019-04-14T15:46:49.815Z,14.73
2019-04-14T15:49:18.249Z,11.90
2019-04-14T15:51:46.700Z,11.22
2019-04-14T15:54:15.130Z,11.65
2019-04-14T15:57:01.271Z,10.32
2019-04-14T15:59:49.385Z,10.75
2019-04-14T16:02:25.382Z,12.05
2019-04-14T16:05:13.558Z,11.48
2019-04-14T16:07:46.592Z,11.10
2019-04-14T16:10:19.312Z,10.70
2019-04-14T16:12:58.188Z,11.12
2019-04-14T16:15:44.352Z,11.40
2019-04-14T16:18:23.480Z,11.25
2019-04-14T16:20:51.909Z,11.22
2019-04-14T16:23:20.337Z,11.50
2019-04-14T16:25:56.509Z,10.00
2019-04-14T16:28:35.876Z,9.38
2019-04-14T16:31:22.028Z,10.48
2019-04-14T16:34:08.328Z,11.35
2019-04-14T16:36:36.817Z,10.45
2019-04-14T16:39:06.649Z,9.75
2019-04-14T16:41:35.074Z,10.63
2019-04-14T16:44:03.961Z,10.65
2019-04-14T16:46:32.381Z,11.35
2019-04-14T16:49:00.876Z,10.68
2019-04-14T16:51:34.026Z,8.73
2019-04-14T16:54:04.158Z,8.80
2019-04-14T16:56:39.803Z,11.95
2019-04-14T16:59:08.993Z,8.35
2019-04-14T17:01:39.057Z,11.05
2019-04-14T17:04:07.778Z,10.05
2019-04-14T17:06:36.192Z,9.50
2019-04-14T17:09:06.960Z,9.65
2019-04-14T17:11:35.400Z,8.40
2019-04-14T17:14:08.496Z,10.05
2019-04-14T17:16:53.642Z,8.43
2019-04-14T17:19:23.724Z,11.68
2019-04-14T17:21:53.895Z,10.23
2019-04-14T17:24:24.299Z,11.15
2019-04-14T17:26:54.590Z,10.90
2019-04-14T17:29:24.982Z,10.53
2019-04-14T17:32:11.324Z,9.00
2019-04-14T17:34:54.656Z,11.00
2019-04-14T17:37:33.791Z,9.25
2019-04-14T17:40:09.636Z,10.25
2019-04-14T17:42:39.749Z,9.30
2019-04-14T17:45:13.064Z,9.33
2019-04-14T17:47:52.081Z,8.10
2019-04-14T17:50:39.745Z,11.43
2019-04-14T17:53:08.226Z,10.58
2019-04-14T17:55:49.437Z,10.00
2019-04-14T17:58:10.079Z,11.08
2019-04-14T18:00:49.166Z,11.05
2019-04-14T18:03:21.901Z,12.20
2019-04-14T18:05:54.693Z,12.20
2019-04-14T18:08:36.258Z,10.75
2019-04-14T18:11:06.650Z,9.80
2019-04-14T18:13:39.149Z,9.70
2019-04-14T18:16:09.206Z,11.65
2019-04-14T18:18:55.612Z,9.83
2019-04-14T18:21:24.302Z,10.95
2019-04-14T18:23:52.740Z,12.50
2019-04-14T18:26:21.181Z,12.13
2019-04-14T18:28:56.704Z,11.33
2019-04-14T18:31:35.911Z,11.48
2019-04-14T18:34:06.076Z,11.75
2019-04-14T18:36:36.455Z,9.83
2019-04-14T18:39:17.929Z,9.78
2019-04-14T18:42:05.885Z,11.25
2019-04-14T18:44:35.968Z,11.33
2019-04-14T18:47:18.026Z,11.57
2019-04-14T18:49:48.124Z,13.30
2019-04-14T18:52:27.097Z,11.05
2019-04-14T18:54:57.190Z,12.85
2019-04-14T18:57:27.268Z,11.73
2019-04-14T18:59:57.341Z,12.93
2019-04-14T19:02:25.853Z,10.72
2019-04-14T19:04:54.287Z,10.15
2019-04-14T19:07:23.610Z,11.30
2019-04-14T19:09:52.060Z,11.35
2019-04-14T19:12:22.141Z,10.65
2019-04-14T19:14:55.180Z,13.60
2019-04-14T19:17:37.361Z,8.88
2019-04-14T19:20:07.256Z,8.60
2019-04-14T19:22:35.674Z,10.00
2019-04-14T19:25:08.510Z,8.85
2019-04-14T19:27:35.633Z,9.13
2019-04-14T19:30:06.097Z,10.28
2019-04-14T19:32:34.571Z,9.63
2019-04-14T19:35:03.031Z,12.90
2019-04-14T19:37:31.527Z,9.88
2019-04-14T19:40:00.008Z,10.65
2019-04-14T19:42:28.433Z,10.43
2019-04-14T19:44:56.858Z,9.78
2019-04-14T19:47:25.316Z,9.68
2019-04-14T19:49:53.833Z,8.88
2019-04-14T19:52:22.298Z,10.55
2019-04-14T19:54:50.745Z,9.90
2019-04-14T19:57:19.282Z,8.65
2019-04-14T19:59:47.798Z,9.45
2019-04-14T20:02:16.268Z,9.00
2019-04-14T20:04:44.693Z,9.55
2019-04-14T20:07:13.233Z,10.08
2019-04-14T20:09:41.697Z,11.08
2019-04-14T20:12:10.307Z,11.38
2019-04-14T20:14:38.721Z,9.00
2019-04-14T20:17:23.627Z,9.73
2019-04-14T20:20:09.639Z,8.85
2019-04-14T20:22:39.717Z,8.08
2019-04-14T20:25:15.980Z,8.93
2019-04-14T20:27:46.065Z,10.65
2019-04-14T20:30:19.013Z,11.08
2019-04-14T20:32:49.086Z,7.97
2019-04-14T20:35:17.553Z,7.40
2019-04-14T20:37:45.988Z,8.70
2019-04-14T20:40:14.473Z,6.60
2019-04-14T20:42:42.918Z,8.40
2019-04-14T20:45:12.166Z,8.70
2019-04-14T20:47:40.592Z,6.87
2019-04-14T20:50:09.387Z,8.08
2019-04-14T20:52:37.802Z,9.80
2019-04-14T20:55:07.746Z,8.00
2019-04-14T20:57:36.180Z,6.90
2019-04-14T21:00:06.246Z,8.45
2019-04-14T21:02:36.308Z,9.38
2019-04-14T21:05:23.509Z,6.78
2019-04-14T21:08:02.613Z,6.25
2019-04-14T21:10:44.409Z,7.87
2019-04-14T21:13:20.192Z,6.03
2019-04-14T21:15:50.517Z,6.72
2019-04-14T21:18:35.665Z,6.13
2019-04-14T21:21:05.773Z,6.58
2019-04-14T21:23:44.508Z,6.97
2019-04-14T21:26:26.192Z,5.87
2019-04-14T21:28:54.946Z,4.93
2019-04-14T21:31:30.993Z,5.28
2019-04-14T21:34:04.093Z,6.63
2019-04-14T21:36:50.249Z,5.00
2019-04-14T21:39:40.621Z,4.83
2019-04-14T21:42:08.561Z,5.20
2019-04-14T21:44:36.994Z,6.87
2019-04-14T21:47:05.604Z,4.22
2019-04-14T21:49:34.189Z,5.58
2019-04-14T21:52:10.056Z,5.22
2019-04-14T21:54:40.264Z,4.95
2019-04-14T21:57:26.060Z,4.80
2019-04-14T22:00:05.214Z,5.50
2019-04-14T22:02:51.353Z,4.78
2019-04-14T22:05:21.442Z,4.20
2019-04-14T22:08:07.447Z,5.00
2019-04-14T22:10:37.524Z,5.10
2019-04-14T22:13:06.010Z,5.25
2019-04-14T22:15:34.690Z,5.12
2019-04-14T22:18:03.135Z,4.17
2019-04-14T22:20:31.554Z,4.42
2019-04-14T22:23:01.040Z,5.70
2019-04-14T22:25:29.503Z,5.60
2019-04-14T22:27:58.176Z,5.30
2019-04-14T22:30:26.847Z,3.90
2019-04-14T22:32:55.288Z,4.85
2019-04-14T22:35:23.873Z,4.60
2019-04-14T22:37:52.305Z,4.70
2019-04-14T22:40:20.806Z,5.25
2019-04-14T22:42:49.224Z,7.40
2019-04-14T22:45:17.657Z,4.50
2019-04-14T22:47:46.102Z,5.10
2019-04-14T22:50:14.588Z,5.42
2019-04-14T22:52:43.257Z,4.40
2019-04-14T22:55:11.901Z,4.47
2019-04-14T22:57:40.410Z,4.37
2019-04-14T23:00:13.617Z,5.80
2019-04-14T23:02:55.484Z,4.87
2019-04-14T23:05:41.577Z,5.00
2019-04-14T23:08:26.985Z,5.33
2019-04-14T23:11:12.973Z,5.72
2019-04-14T23:13:59.316Z,5.95
2019-04-14T23:16:35.438Z,7.35
2019-04-14T23:19:14.656Z,5.37
2019-04-14T23:21:56.388Z,6.20
2019-04-14T23:24:26.481Z,6.25
2019-04-14T23:26:54.933Z,5.28
2019-04-14T23:29:23.358Z,5.12
2019-04-14T23:31:51.797Z,5.60
2019-04-14T23:34:20.221Z,5.33
2019-04-14T23:36:48.894Z,6.78
2019-04-14T23:39:17.334Z,6.15
2019-04-14T23:41:45.754Z,4.83
2019-04-14T23:44:14.485Z,5.20
2019-04-14T23:46:42.918Z,5.50
2019-04-14T23:49:11.590Z,4.50
2019-04-14T23:51:40.018Z,6.45
2019-04-14T23:54:08.450Z,4.90
2019-04-14T23:56:36.871Z,5.10
2019-04-14T23:59:05.600Z,5.45
